sensor_id;sensor_type;location;lat;lon;timestamp;P1;durP1;ratioP1;P2;durP2;ratioP2
76409;SDS011;65238;42.662;23.280;2023-12-04T00:01:57;10.13;;;5.50;;
76409;SDS011;65238;42.662;23.280;2023-12-04T00:04:23;12.20;;;4.75;;
76409;SDS011;65238;42.662;23.280;2023-12-04T00:06:48;9.60;;;4.80;;
76409;SDS011;65238;42.662;23.280;2023-12-04T00:09:14;10.50;;;5.57;;
76409;SDS011;65238;42.662;23.280;2023-12-04T00:11:39;17.30;;;8.20;;
76409;SDS011;65238;42.662;23.280;2023-12-04T00:14:05;11.57;;;5.65;;
76409;SDS011;65238;42.662;23.280;2023-12-04T00:16:33;11.48;;;5.97;;
76409;SDS011;65238;42.662;23.280;2023-12-04T00:18:59;10.13;;;5.35;;
76409;SDS011;65238;42.662;23.280;2023-12-04T00:21:24;9.88;;;4.72;;
76409;SDS011;65238;42.662;23.280;2023-12-04T00:23:50;8.68;;;4.72;;
76409;SDS011;65238;42.662;23.280;2023-12-04T00:26:16;8.27;;;4.70;;
76409;SDS011;65238;42.662;23.280;2023-12-04T00:28:41;8.95;;;5.03;;
76409;SDS011;65238;42.662;23.280;2023-12-04T00:31:06;10.00;;;5.40;;
76409;SDS011;65238;42.662;23.280;2023-12-04T00:33:33;11.73;;;5.40;;
76409;SDS011;65238;42.662;23.280;2023-12-04T00:35:59;9.80;;;5.30;;
76409;SDS011;65238;42.662;23.280;2023-12-04T00:38:25;9.63;;;4.97;;
76409;SDS011;65238;42.662;23.280;2023-12-04T00:40:50;10.07;;;5.20;;
76409;SDS011;65238;42.662;23.280;2023-12-04T00:43:16;10.27;;;5.32;;
76409;SDS011;65238;42.662;23.280;2023-12-04T00:45:41;7.68;;;4.70;;
76409;SDS011;65238;42.662;23.280;2023-12-04T00:48:07;7.68;;;4.43;;
76409;SDS011;65238;42.662;23.280;2023-12-04T00:50:32;11.50;;;4.93;;
76409;SDS011;65238;42.662;23.280;2023-12-04T00:52:57;11.50;;;5.85;;
76409;SDS011;65238;42.662;23.280;2023-12-04T00:55:23;9.60;;;5.50;;
76409;SDS011;65238;42.662;23.280;2023-12-04T00:57:49;9.32;;;5.40;;
76409;SDS011;65238;42.662;23.280;2023-12-04T01:00:14;9.13;;;4.85;;
76409;SDS011;65238;42.662;23.280;2023-12-04T01:02:41;10.38;;;5.70;;
76409;SDS011;65238;42.662;23.280;2023-12-04T01:05:06;10.75;;;5.20;;
76409;SDS011;65238;42.662;23.280;2023-12-04T01:07:32;9.88;;;5.53;;
76409;SDS011;65238;42.662;23.280;2023-12-04T01:09:57;11.15;;;6.85;;
76409;SDS011;65238;42.662;23.280;2023-12-04T01:12:23;10.82;;;6.05;;
76409;SDS011;65238;42.662;23.280;2023-12-04T01:14:48;10.70;;;5.88;;
76409;SDS011;65238;42.662;23.280;2023-12-04T01:17:14;9.88;;;5.63;;
76409;SDS011;65238;42.662;23.280;2023-12-04T01:19:39;11.07;;;6.28;;
76409;SDS011;65238;42.662;23.280;2023-12-04T01:22:05;9.00;;;4.57;;
76409;SDS011;65238;42.662;23.280;2023-12-04T01:24:31;8.73;;;5.18;;
76409;SDS011;65238;42.662;23.280;2023-12-04T01:26:56;10.48;;;5.68;;
76409;SDS011;65238;42.662;23.280;2023-12-04T01:29:22;10.85;;;5.28;;
76409;SDS011;65238;42.662;23.280;2023-12-04T01:31:47;11.75;;;6.38;;
76409;SDS011;65238;42.662;23.280;2023-12-04T01:34:13;11.55;;;6.47;;
76409;SDS011;65238;42.662;23.280;2023-12-04T01:36:41;13.88;;;6.80;;
76409;SDS011;65238;42.662;23.280;2023-12-04T01:39:07;14.10;;;6.70;;
76409;SDS011;65238;42.662;23.280;2023-12-04T01:41:33;13.35;;;6.57;;
76409;SDS011;65238;42.662;23.280;2023-12-04T01:43:58;14.82;;;8.10;;
76409;SDS011;65238;42.662;23.280;2023-12-04T01:46:24;13.95;;;6.85;;
76409;SDS011;65238;42.662;23.280;2023-12-04T01:48:50;11.57;;;6.45;;
76409;SDS011;65238;42.662;23.280;2023-12-04T01:51:15;13.18;;;6.70;;
76409;SDS011;65238;42.662;23.280;2023-12-04T01:53:42;11.00;;;6.03;;
76409;SDS011;65238;42.662;23.280;2023-12-04T01:56:08;13.57;;;6.45;;
76409;SDS011;65238;42.662;23.280;2023-12-04T01:58:34;11.82;;;5.90;;
76409;SDS011;65238;42.662;23.280;2023-12-04T02:00:59;13.32;;;6.55;;
76409;SDS011;65238;42.662;23.280;2023-12-04T02:03:25;12.57;;;6.65;;
76409;SDS011;65238;42.662;23.280;2023-12-04T02:05:51;14.45;;;6.95;;
76409;SDS011;65238;42.662;23.280;2023-12-04T02:08:18;16.88;;;6.93;;
76409;SDS011;65238;42.662;23.280;2023-12-04T02:10:44;13.70;;;6.93;;
76409;SDS011;65238;42.662;23.280;2023-12-04T02:13:09;11.07;;;6.13;;
76409;SDS011;65238;42.662;23.280;2023-12-04T02:15:35;11.73;;;6.47;;
76409;SDS011;65238;42.662;23.280;2023-12-04T02:18:02;10.40;;;5.97;;
76409;SDS011;65238;42.662;23.280;2023-12-04T02:20:31;11.20;;;6.10;;
76409;SDS011;65238;42.662;23.280;2023-12-04T02:23:00;11.05;;;5.72;;
76409;SDS011;65238;42.662;23.280;2023-12-04T02:25:27;10.63;;;5.78;;
76409;SDS011;65238;42.662;23.280;2023-12-04T02:27:53;11.95;;;5.80;;
76409;SDS011;65238;42.662;23.280;2023-12-04T02:30:19;13.35;;;6.75;;
76409;SDS011;65238;42.662;23.280;2023-12-04T02:32:47;9.82;;;5.05;;
76409;SDS011;65238;42.662;23.280;2023-12-04T02:35:18;12.20;;;5.60;;
76409;SDS011;65238;42.662;23.280;2023-12-04T02:37:45;12.07;;;5.50;;
76409;SDS011;65238;42.662;23.280;2023-12-04T02:40:11;9.38;;;5.63;;
76409;SDS011;65238;42.662;23.280;2023-12-04T02:42:37;11.02;;;5.35;;
76409;SDS011;65238;42.662;23.280;2023-12-04T02:45:03;12.02;;;5.47;;
76409;SDS011;65238;42.662;23.280;2023-12-04T02:47:28;14.57;;;5.75;;
76409;SDS011;65238;42.662;23.280;2023-12-04T02:49:54;11.95;;;6.45;;
76409;SDS011;65238;42.662;23.280;2023-12-04T02:52:19;11.85;;;6.00;;
76409;SDS011;65238;42.662;23.280;2023-12-04T02:54:45;14.10;;;6.70;;
76409;SDS011;65238;42.662;23.280;2023-12-04T02:57:12;11.95;;;5.65;;
76409;SDS011;65238;42.662;23.280;2023-12-04T02:59:38;10.27;;;5.53;;
76409;SDS011;65238;42.662;23.280;2023-12-04T03:02:04;9.60;;;4.95;;
76409;SDS011;65238;42.662;23.280;2023-12-04T03:04:30;9.55;;;5.40;;
76409;SDS011;65238;42.662;23.280;2023-12-04T03:06:56;11.50;;;5.63;;
76409;SDS011;65238;42.662;23.280;2023-12-04T03:09:22;10.82;;;5.85;;
76409;SDS011;65238;42.662;23.280;2023-12-04T03:11:48;8.60;;;5.10;;
76409;SDS011;65238;42.662;23.280;2023-12-04T03:14:14;11.90;;;5.57;;
76409;SDS011;65238;42.662;23.280;2023-12-04T03:16:40;7.78;;;4.80;;
76409;SDS011;65238;42.662;23.280;2023-12-04T03:19:05;10.00;;;5.38;;
76409;SDS011;65238;42.662;23.280;2023-12-04T03:21:31;9.38;;;5.32;;
76409;SDS011;65238;42.662;23.280;2023-12-04T03:23:56;10.40;;;5.30;;
76409;SDS011;65238;42.662;23.280;2023-12-04T03:26:22;9.35;;;5.30;;
76409;SDS011;65238;42.662;23.280;2023-12-04T03:28:47;12.93;;;5.63;;
76409;SDS011;65238;42.662;23.280;2023-12-04T03:31:13;9.77;;;5.85;;
76409;SDS011;65238;42.662;23.280;2023-12-04T03:33:38;9.57;;;5.85;;
76409;SDS011;65238;42.662;23.280;2023-12-04T03:36:04;12.60;;;5.72;;
76409;SDS011;65238;42.662;23.280;2023-12-04T03:38:30;12.13;;;6.07;;
76409;SDS011;65238;42.662;23.280;2023-12-04T03:40:55;11.77;;;6.65;;
76409;SDS011;65238;42.662;23.280;2023-12-04T03:43:21;11.63;;;6.35;;
76409;SDS011;65238;42.662;23.280;2023-12-04T03:45:46;11.90;;;6.95;;
76409;SDS011;65238;42.662;23.280;2023-12-04T03:48:12;9.20;;;5.60;;
76409;SDS011;65238;42.662;23.280;2023-12-04T03:50:37;11.80;;;6.47;;
76409;SDS011;65238;42.662;23.280;2023-12-04T03:53:03;13.90;;;6.32;;
76409;SDS011;65238;42.662;23.280;2023-12-04T03:55:28;11.57;;;5.93;;
76409;SDS011;65238;42.662;23.280;2023-12-04T03:57:54;12.95;;;6.75;;
76409;SDS011;65238;42.662;23.280;2023-12-04T04:00:20;12.90;;;6.50;;
76409;SDS011;65238;42.662;23.280;2023-12-04T04:02:46;13.30;;;6.95;;
76409;SDS011;65238;42.662;23.280;2023-12-04T04:05:11;12.88;;;6.75;;
76409;SDS011;65238;42.662;23.280;2023-12-04T04:07:37;11.52;;;5.97;;
76409;SDS011;65238;42.662;23.280;2023-12-04T04:10:02;9.30;;;5.35;;
76409;SDS011;65238;42.662;23.280;2023-12-04T04:12:29;12.02;;;5.50;;
76409;SDS011;65238;42.662;23.280;2023-12-04T04:14:55;11.23;;;5.82;;
76409;SDS011;65238;42.662;23.280;2023-12-04T04:17:21;10.18;;;5.22;;
76409;SDS011;65238;42.662;23.280;2023-12-04T04:19:47;13.23;;;5.95;;
76409;SDS011;65238;42.662;23.280;2023-12-04T04:22:12;10.00;;;5.78;;
76409;SDS011;65238;42.662;23.280;2023-12-04T04:24:37;11.10;;;5.45;;
76409;SDS011;65238;42.662;23.280;2023-12-04T04:27:03;9.35;;;5.28;;
76409;SDS011;65238;42.662;23.280;2023-12-04T04:29:28;11.10;;;6.55;;
76409;SDS011;65238;42.662;23.280;2023-12-04T04:31:54;16.13;;;7.40;;
76409;SDS011;65238;42.662;23.280;2023-12-04T04:34:20;17.60;;;8.88;;
76409;SDS011;65238;42.662;23.280;2023-12-04T04:36:46;14.88;;;7.68;;
76409;SDS011;65238;42.662;23.280;2023-12-04T04:39:12;15.23;;;7.40;;
76409;SDS011;65238;42.662;23.280;2023-12-04T04:41:38;16.98;;;6.97;;
76409;SDS011;65238;42.662;23.280;2023-12-04T04:44:05;13.23;;;6.65;;
76409;SDS011;65238;42.662;23.280;2023-12-04T04:46:30;12.40;;;6.95;;
76409;SDS011;65238;42.662;23.280;2023-12-04T04:48:56;12.82;;;6.45;;
76409;SDS011;65238;42.662;23.280;2023-12-04T04:51:22;22.55;;;10.07;;
76409;SDS011;65238;42.662;23.280;2023-12-04T04:53:47;14.57;;;7.43;;
76409;SDS011;65238;42.662;23.280;2023-12-04T04:56:14;10.70;;;6.40;;
76409;SDS011;65238;42.662;23.280;2023-12-04T04:58:40;16.67;;;7.30;;
76409;SDS011;65238;42.662;23.280;2023-12-04T05:01:06;11.60;;;6.38;;
76409;SDS011;65238;42.662;23.280;2023-12-04T05:03:32;11.68;;;6.20;;
76409;SDS011;65238;42.662;23.280;2023-12-04T05:05:57;10.85;;;6.40;;
76409;SDS011;65238;42.662;23.280;2023-12-04T05:08:23;11.60;;;5.97;;
76409;SDS011;65238;42.662;23.280;2023-12-04T05:10:48;12.25;;;6.03;;
76409;SDS011;65238;42.662;23.280;2023-12-04T05:13:14;14.73;;;7.30;;
76409;SDS011;65238;42.662;23.280;2023-12-04T05:15:39;15.82;;;6.45;;
76409;SDS011;65238;42.662;23.280;2023-12-04T05:18:05;14.55;;;7.03;;
76409;SDS011;65238;42.662;23.280;2023-12-04T05:20:30;12.63;;;7.05;;
76409;SDS011;65238;42.662;23.280;2023-12-04T05:22:56;13.38;;;7.50;;
76409;SDS011;65238;42.662;23.280;2023-12-04T05:25:22;13.25;;;7.72;;
76409;SDS011;65238;42.662;23.280;2023-12-04T05:27:47;16.80;;;7.88;;
76409;SDS011;65238;42.662;23.280;2023-12-04T05:30:13;15.52;;;8.23;;
76409;SDS011;65238;42.662;23.280;2023-12-04T05:32:38;17.00;;;7.65;;
76409;SDS011;65238;42.662;23.280;2023-12-04T05:35:04;14.75;;;8.15;;
76409;SDS011;65238;42.662;23.280;2023-12-04T05:37:29;16.17;;;8.07;;
76409;SDS011;65238;42.662;23.280;2023-12-04T05:39:55;14.63;;;7.75;;
76409;SDS011;65238;42.662;23.280;2023-12-04T05:42:20;17.98;;;8.93;;
76409;SDS011;65238;42.662;23.280;2023-12-04T05:44:46;16.27;;;9.15;;
76409;SDS011;65238;42.662;23.280;2023-12-04T05:47:11;19.92;;;9.85;;
76409;SDS011;65238;42.662;23.280;2023-12-04T05:49:37;29.55;;;11.95;;
76409;SDS011;65238;42.662;23.280;2023-12-04T05:52:03;27.67;;;11.32;;
76409;SDS011;65238;42.662;23.280;2023-12-04T05:54:28;24.58;;;11.15;;
76409;SDS011;65238;42.662;23.280;2023-12-04T05:56:54;18.63;;;9.48;;
76409;SDS011;65238;42.662;23.280;2023-12-04T05:59:19;16.38;;;8.55;;
76409;SDS011;65238;42.662;23.280;2023-12-04T06:01:45;20.63;;;9.95;;
76409;SDS011;65238;42.662;23.280;2023-12-04T06:04:10;18.88;;;9.52;;
76409;SDS011;65238;42.662;23.280;2023-12-04T06:06:36;17.60;;;8.85;;
76409;SDS011;65238;42.662;23.280;2023-12-04T06:09:01;17.17;;;8.88;;
76409;SDS011;65238;42.662;23.280;2023-12-04T06:11:26;16.15;;;8.15;;
76409;SDS011;65238;42.662;23.280;2023-12-04T06:13:52;18.63;;;8.32;;
76409;SDS011;65238;42.662;23.280;2023-12-04T06:16:18;16.90;;;8.93;;
76409;SDS011;65238;42.662;23.280;2023-12-04T06:18:43;17.98;;;8.85;;
76409;SDS011;65238;42.662;23.280;2023-12-04T06:21:08;20.25;;;9.23;;
76409;SDS011;65238;42.662;23.280;2023-12-04T06:23:34;24.42;;;10.65;;
76409;SDS011;65238;42.662;23.280;2023-12-04T06:26:00;22.83;;;10.68;;
76409;SDS011;65238;42.662;23.280;2023-12-04T06:28:25;23.40;;;10.10;;
76409;SDS011;65238;42.662;23.280;2023-12-04T06:30:51;16.40;;;8.68;;
76409;SDS011;65238;42.662;23.280;2023-12-04T06:33:17;18.58;;;9.23;;
76409;SDS011;65238;42.662;23.280;2023-12-04T06:35:43;18.42;;;9.73;;
76409;SDS011;65238;42.662;23.280;2023-12-04T06:38:09;21.63;;;10.18;;
76409;SDS011;65238;42.662;23.280;2023-12-04T06:40:37;26.88;;;11.65;;
76409;SDS011;65238;42.662;23.280;2023-12-04T06:43:03;18.60;;;9.25;;
76409;SDS011;65238;42.662;23.280;2023-12-04T06:45:29;19.27;;;9.45;;
76409;SDS011;65238;42.662;23.280;2023-12-04T06:47:57;23.08;;;10.52;;
76409;SDS011;65238;42.662;23.280;2023-12-04T06:50:23;19.85;;;10.45;;
76409;SDS011;65238;42.662;23.280;2023-12-04T06:52:49;19.23;;;9.20;;
76409;SDS011;65238;42.662;23.280;2023-12-04T06:55:14;16.73;;;7.90;;
76409;SDS011;65238;42.662;23.280;2023-12-04T06:57:43;19.38;;;9.38;;
76409;SDS011;65238;42.662;23.280;2023-12-04T07:00:09;15.80;;;8.05;;
76409;SDS011;65238;42.662;23.280;2023-12-04T07:02:39;16.20;;;8.25;;
76409;SDS011;65238;42.662;23.280;2023-12-04T07:05:05;15.90;;;7.53;;
76409;SDS011;65238;42.662;23.280;2023-12-04T07:07:31;17.25;;;8.20;;
76409;SDS011;65238;42.662;23.280;2023-12-04T07:09:56;13.95;;;7.05;;
76409;SDS011;65238;42.662;23.280;2023-12-04T07:12:22;17.50;;;8.45;;
76409;SDS011;65238;42.662;23.280;2023-12-04T07:14:47;13.32;;;6.72;;
76409;SDS011;65238;42.662;23.280;2023-12-04T07:17:13;16.95;;;8.20;;
76409;SDS011;65238;42.662;23.280;2023-12-04T07:19:40;13.57;;;7.35;;
76409;SDS011;65238;42.662;23.280;2023-12-04T07:22:06;13.07;;;7.03;;
76409;SDS011;65238;42.662;23.280;2023-12-04T07:24:32;14.90;;;7.15;;
76409;SDS011;65238;42.662;23.280;2023-12-04T07:26:58;14.25;;;7.13;;
76409;SDS011;65238;42.662;23.280;2023-12-04T07:29:23;13.32;;;7.55;;
76409;SDS011;65238;42.662;23.280;2023-12-04T07:31:49;13.95;;;7.03;;
76409;SDS011;65238;42.662;23.280;2023-12-04T07:34:14;13.20;;;7.30;;
76409;SDS011;65238;42.662;23.280;2023-12-04T07:36:40;12.48;;;7.35;;
76409;SDS011;65238;42.662;23.280;2023-12-04T07:39:06;16.73;;;7.78;;
76409;SDS011;65238;42.662;23.280;2023-12-04T07:41:32;13.85;;;6.88;;
76409;SDS011;65238;42.662;23.280;2023-12-04T07:43:57;14.18;;;7.03;;
76409;SDS011;65238;42.662;23.280;2023-12-04T07:46:23;14.38;;;7.18;;
76409;SDS011;65238;42.662;23.280;2023-12-04T07:48:48;10.70;;;6.50;;
76409;SDS011;65238;42.662;23.280;2023-12-04T07:51:14;14.00;;;7.53;;
76409;SDS011;65238;42.662;23.280;2023-12-04T07:53:40;14.85;;;7.22;;
76409;SDS011;65238;42.662;23.280;2023-12-04T07:56:05;13.02;;;6.78;;
76409;SDS011;65238;42.662;23.280;2023-12-04T07:58:31;13.35;;;7.25;;
76409;SDS011;65238;42.662;23.280;2023-12-04T08:00:57;16.27;;;7.70;;
76409;SDS011;65238;42.662;23.280;2023-12-04T08:03:23;12.52;;;6.78;;
76409;SDS011;65238;42.662;23.280;2023-12-04T08:05:49;15.45;;;7.10;;
76409;SDS011;65238;42.662;23.280;2023-12-04T08:08:15;13.65;;;7.30;;
76409;SDS011;65238;42.662;23.280;2023-12-04T08:10:41;16.23;;;7.13;;
76409;SDS011;65238;42.662;23.280;2023-12-04T08:13:06;11.85;;;6.47;;
76409;SDS011;65238;42.662;23.280;2023-12-04T08:15:32;16.45;;;9.10;;
76409;SDS011;65238;42.662;23.280;2023-12-04T08:17:57;14.82;;;6.57;;
76409;SDS011;65238;42.662;23.280;2023-12-04T08:20:23;10.88;;;6.10;;
76409;SDS011;65238;42.662;23.280;2023-12-04T08:22:48;9.63;;;5.32;;
76409;SDS011;65238;42.662;23.280;2023-12-04T08:25:14;8.98;;;5.30;;
76409;SDS011;65238;42.662;23.280;2023-12-04T08:27:40;9.48;;;4.75;;
76409;SDS011;65238;42.662;23.280;2023-12-04T08:30:05;10.68;;;5.25;;
76409;SDS011;65238;42.662;23.280;2023-12-04T08:32:31;10.23;;;5.65;;
76409;SDS011;65238;42.662;23.280;2023-12-04T08:34:57;8.32;;;4.75;;
76409;SDS011;65238;42.662;23.280;2023-12-04T08:37:22;9.88;;;5.13;;
76409;SDS011;65238;42.662;23.280;2023-12-04T08:39:48;7.80;;;4.78;;
76409;SDS011;65238;42.662;23.280;2023-12-04T08:42:13;8.05;;;4.55;;
76409;SDS011;65238;42.662;23.280;2023-12-04T08:44:39;7.72;;;4.68;;
76409;SDS011;65238;42.662;23.280;2023-12-04T08:47:05;6.95;;;3.90;;
76409;SDS011;65238;42.662;23.280;2023-12-04T08:49:31;7.75;;;4.03;;
76409;SDS011;65238;42.662;23.280;2023-12-04T08:51:57;7.63;;;4.57;;
76409;SDS011;65238;42.662;23.280;2023-12-04T08:54:24;7.63;;;4.43;;
76409;SDS011;65238;42.662;23.280;2023-12-04T08:56:49;10.18;;;4.78;;
76409;SDS011;65238;42.662;23.280;2023-12-04T08:59:15;8.48;;;4.57;;
76409;SDS011;65238;42.662;23.280;2023-12-04T09:01:41;8.02;;;4.20;;
76409;SDS011;65238;42.662;23.280;2023-12-04T09:04:07;7.88;;;4.75;;
76409;SDS011;65238;42.662;23.280;2023-12-04T09:06:33;7.07;;;4.50;;
76409;SDS011;65238;42.662;23.280;2023-12-04T09:08:59;6.43;;;4.00;;
76409;SDS011;65238;42.662;23.280;2023-12-04T09:11:24;7.47;;;3.55;;
76409;SDS011;65238;42.662;23.280;2023-12-04T09:13:50;7.10;;;3.80;;
76409;SDS011;65238;42.662;23.280;2023-12-04T09:16:15;7.57;;;4.40;;
76409;SDS011;65238;42.662;23.280;2023-12-04T09:18:41;9.07;;;4.93;;
76409;SDS011;65238;42.662;23.280;2023-12-04T09:21:06;9.50;;;4.25;;
76409;SDS011;65238;42.662;23.280;2023-12-04T09:23:33;9.05;;;4.72;;
76409;SDS011;65238;42.662;23.280;2023-12-04T09:25:58;7.53;;;3.85;;
76409;SDS011;65238;42.662;23.280;2023-12-04T09:28:24;8.27;;;4.47;;
76409;SDS011;65238;42.662;23.280;2023-12-04T09:30:49;9.05;;;4.85;;
76409;SDS011;65238;42.662;23.280;2023-12-04T09:33:14;8.30;;;3.97;;
76409;SDS011;65238;42.662;23.280;2023-12-04T09:35:40;9.15;;;4.90;;
76409;SDS011;65238;42.662;23.280;2023-12-04T09:38:05;8.82;;;4.40;;
76409;SDS011;65238;42.662;23.280;2023-12-04T09:40:31;8.77;;;4.38;;
76409;SDS011;65238;42.662;23.280;2023-12-04T09:42:57;11.15;;;4.63;;
76409;SDS011;65238;42.662;23.280;2023-12-04T09:45:23;9.55;;;4.13;;
76409;SDS011;65238;42.662;23.280;2023-12-04T09:47:50;7.55;;;4.28;;
76409;SDS011;65238;42.662;23.280;2023-12-04T09:50:16;7.07;;;4.00;;
76409;SDS011;65238;42.662;23.280;2023-12-04T09:52:47;6.82;;;4.47;;
76409;SDS011;65238;42.662;23.280;2023-12-04T09:55:15;6.75;;;3.90;;
76409;SDS011;65238;42.662;23.280;2023-12-04T09:57:41;7.32;;;4.20;;
76409;SDS011;65238;42.662;23.280;2023-12-04T10:00:14;7.55;;;4.00;;
76409;SDS011;65238;42.662;23.280;2023-12-04T10:02:40;7.97;;;4.10;;
76409;SDS011;65238;42.662;23.280;2023-12-04T10:05:06;7.25;;;4.03;;
76409;SDS011;65238;42.662;23.280;2023-12-04T10:07:33;7.70;;;4.60;;
76409;SDS011;65238;42.662;23.280;2023-12-04T10:09:58;8.48;;;4.40;;
76409;SDS011;65238;42.662;23.280;2023-12-04T10:12:24;9.68;;;4.20;;
76409;SDS011;65238;42.662;23.280;2023-12-04T10:15:09;8.25;;;4.07;;
76409;SDS011;65238;42.662;23.280;2023-12-04T10:17:36;7.43;;;3.92;;
76409;SDS011;65238;42.662;23.280;2023-12-04T10:20:04;11.32;;;4.22;;
76409;SDS011;65238;42.662;23.280;2023-12-04T10:22:35;7.70;;;4.43;;
76409;SDS011;65238;42.662;23.280;2023-12-04T10:25:15;9.57;;;4.45;;
76409;SDS011;65238;42.662;23.280;2023-12-04T10:27:42;8.15;;;4.47;;
76409;SDS011;65238;42.662;23.280;2023-12-04T10:30:08;8.27;;;4.78;;
76409;SDS011;65238;42.662;23.280;2023-12-04T10:32:40;8.55;;;4.65;;
76409;SDS011;65238;42.662;23.280;2023-12-04T10:35:06;7.82;;;4.30;;
76409;SDS011;65238;42.662;23.280;2023-12-04T10:40:03;7.88;;;4.57;;
76409;SDS011;65238;42.662;23.280;2023-12-04T10:42:33;8.77;;;4.55;;
76409;SDS011;65238;42.662;23.280;2023-12-04T10:44:59;7.47;;;4.00;;
76409;SDS011;65238;42.662;23.280;2023-12-04T10:47:26;8.48;;;4.55;;
76409;SDS011;65238;42.662;23.280;2023-12-04T10:49:53;7.68;;;4.60;;
76409;SDS011;65238;42.662;23.280;2023-12-04T10:52:19;12.88;;;4.85;;
76409;SDS011;65238;42.662;23.280;2023-12-04T10:54:46;7.97;;;4.95;;
76409;SDS011;65238;42.662;23.280;2023-12-04T10:57:12;9.32;;;4.75;;
76409;SDS011;65238;42.662;23.280;2023-12-04T10:59:39;13.15;;;5.20;;
76409;SDS011;65238;42.662;23.280;2023-12-04T11:02:05;7.30;;;4.35;;
76409;SDS011;65238;42.662;23.280;2023-12-04T11:04:37;10.48;;;4.22;;
76409;SDS011;65238;42.662;23.280;2023-12-04T11:07:04;12.15;;;5.13;;
76409;SDS011;65238;42.662;23.280;2023-12-04T11:09:31;9.48;;;5.20;;
76409;SDS011;65238;42.662;23.280;2023-12-04T11:11:57;11.48;;;4.90;;
76409;SDS011;65238;42.662;23.280;2023-12-04T11:14:25;10.98;;;4.75;;
76409;SDS011;65238;42.662;23.280;2023-12-04T11:16:57;9.77;;;5.05;;
76409;SDS011;65238;42.662;23.280;2023-12-04T11:22:05;10.02;;;5.25;;
76409;SDS011;65238;42.662;23.280;2023-12-04T11:24:32;9.90;;;5.40;;
76409;SDS011;65238;42.662;23.280;2023-12-04T11:26:58;13.82;;;5.28;;
76409;SDS011;65238;42.662;23.280;2023-12-04T11:29:23;11.73;;;5.57;;
76409;SDS011;65238;42.662;23.280;2023-12-04T11:31:49;10.25;;;5.18;;
76409;SDS011;65238;42.662;23.280;2023-12-04T11:34:14;10.38;;;6.13;;
76409;SDS011;65238;42.662;23.280;2023-12-04T11:36:40;9.10;;;4.97;;
76409;SDS011;65238;42.662;23.280;2023-12-04T11:39:09;8.52;;;5.32;;
76409;SDS011;65238;42.662;23.280;2023-12-04T11:41:36;10.25;;;5.15;;
76409;SDS011;65238;42.662;23.280;2023-12-04T11:44:02;9.90;;;5.10;;
76409;SDS011;65238;42.662;23.280;2023-12-04T11:46:28;11.75;;;5.30;;
76409;SDS011;65238;42.662;23.280;2023-12-04T11:48:56;11.40;;;5.95;;
76409;SDS011;65238;42.662;23.280;2023-12-04T11:54:03;9.27;;;5.43;;
76409;SDS011;65238;42.662;23.280;2023-12-04T11:56:30;8.63;;;5.15;;
76409;SDS011;65238;42.662;23.280;2023-12-04T11:59:02;8.88;;;5.03;;
76409;SDS011;65238;42.662;23.280;2023-12-04T12:01:35;9.90;;;5.53;;
76409;SDS011;65238;42.662;23.280;2023-12-04T12:04:01;9.05;;;4.88;;
76409;SDS011;65238;42.662;23.280;2023-12-04T12:06:27;10.10;;;5.13;;
76409;SDS011;65238;42.662;23.280;2023-12-04T12:08:52;9.80;;;5.47;;
76409;SDS011;65238;42.662;23.280;2023-12-04T12:11:19;10.02;;;6.10;;
76409;SDS011;65238;42.662;23.280;2023-12-04T12:13:45;11.65;;;5.95;;
76409;SDS011;65238;42.662;23.280;2023-12-04T12:16:10;13.98;;;6.00;;
76409;SDS011;65238;42.662;23.280;2023-12-04T12:18:36;11.73;;;5.40;;
76409;SDS011;65238;42.662;23.280;2023-12-04T12:21:02;12.70;;;5.85;;
76409;SDS011;65238;42.662;23.280;2023-12-04T12:23:27;14.15;;;5.90;;
76409;SDS011;65238;42.662;23.280;2023-12-04T12:25:54;12.10;;;6.03;;
76409;SDS011;65238;42.662;23.280;2023-12-04T12:28:19;10.13;;;5.50;;
76409;SDS011;65238;42.662;23.280;2023-12-04T12:30:45;10.50;;;6.05;;
76409;SDS011;65238;42.662;23.280;2023-12-04T12:33:14;11.07;;;7.00;;
76409;SDS011;65238;42.662;23.280;2023-12-04T12:35:40;14.32;;;6.18;;
76409;SDS011;65238;42.662;23.280;2023-12-04T12:38:06;12.50;;;6.18;;
76409;SDS011;65238;42.662;23.280;2023-12-04T12:40:33;11.25;;;5.88;;
76409;SDS011;65238;42.662;23.280;2023-12-04T12:43:05;11.13;;;6.07;;
76409;SDS011;65238;42.662;23.280;2023-12-04T12:45:50;12.48;;;5.95;;
76409;SDS011;65238;42.662;23.280;2023-12-04T12:48:16;10.73;;;5.88;;
76409;SDS011;65238;42.662;23.280;2023-12-04T12:50:42;15.18;;;6.15;;
76409;SDS011;65238;42.662;23.280;2023-12-04T12:53:10;12.32;;;5.60;;
76409;SDS011;65238;42.662;23.280;2023-12-04T12:55:43;10.93;;;5.85;;
76409;SDS011;65238;42.662;23.280;2023-12-04T12:58:09;12.48;;;6.55;;
76409;SDS011;65238;42.662;23.280;2023-12-04T13:00:42;14.80;;;6.93;;
76409;SDS011;65238;42.662;23.280;2023-12-04T13:03:15;14.57;;;6.28;;
76409;SDS011;65238;42.662;23.280;2023-12-04T13:05:44;12.73;;;6.57;;
76409;SDS011;65238;42.662;23.280;2023-12-04T13:08:09;14.00;;;7.45;;
76409;SDS011;65238;42.662;23.280;2023-12-04T13:10:37;12.75;;;6.40;;
76409;SDS011;65238;42.662;23.280;2023-12-04T13:13:03;14.57;;;6.45;;
76409;SDS011;65238;42.662;23.280;2023-12-04T13:15:29;10.80;;;6.30;;
76409;SDS011;65238;42.662;23.280;2023-12-04T13:17:55;14.65;;;7.00;;
76409;SDS011;65238;42.662;23.280;2023-12-04T13:20:21;15.60;;;6.82;;
76409;SDS011;65238;42.662;23.280;2023-12-04T13:22:48;25.50;;;7.63;;
76409;SDS011;65238;42.662;23.280;2023-12-04T13:25:14;18.35;;;7.88;;
76409;SDS011;65238;42.662;23.280;2023-12-04T13:27:39;15.93;;;7.03;;
76409;SDS011;65238;42.662;23.280;2023-12-04T13:30:05;15.82;;;7.22;;
76409;SDS011;65238;42.662;23.280;2023-12-04T13:32:33;14.02;;;7.53;;
76409;SDS011;65238;42.662;23.280;2023-12-04T13:35:08;13.30;;;7.40;;
76409;SDS011;65238;42.662;23.280;2023-12-04T13:37:33;18.88;;;8.23;;
76409;SDS011;65238;42.662;23.280;2023-12-04T13:40:01;19.13;;;7.70;;
76409;SDS011;65238;42.662;23.280;2023-12-04T13:42:40;21.27;;;9.68;;
76409;SDS011;65238;42.662;23.280;2023-12-04T13:45:24;20.58;;;10.98;;
76409;SDS011;65238;42.662;23.280;2023-12-04T13:47:50;21.30;;;11.18;;
76409;SDS011;65238;42.662;23.280;2023-12-04T13:50:15;20.85;;;10.95;;
76409;SDS011;65238;42.662;23.280;2023-12-04T13:52:41;23.63;;;10.95;;
76409;SDS011;65238;42.662;23.280;2023-12-04T13:55:08;18.83;;;10.27;;
76409;SDS011;65238;42.662;23.280;2023-12-04T13:57:45;22.08;;;10.25;;
76409;SDS011;65238;42.662;23.280;2023-12-04T14:00:34;18.63;;;10.55;;
76409;SDS011;65238;42.662;23.280;2023-12-04T14:03:00;20.23;;;10.20;;
76409;SDS011;65238;42.662;23.280;2023-12-04T14:05:30;18.20;;;9.73;;
76409;SDS011;65238;42.662;23.280;2023-12-04T14:07:56;19.02;;;10.35;;
76409;SDS011;65238;42.662;23.280;2023-12-04T14:10:23;20.45;;;9.80;;
76409;SDS011;65238;42.662;23.280;2023-12-04T14:12:51;25.48;;;10.63;;
76409;SDS011;65238;42.662;23.280;2023-12-04T14:15:16;21.63;;;11.15;;
76409;SDS011;65238;42.662;23.280;2023-12-04T14:17:42;23.38;;;11.45;;
76409;SDS011;65238;42.662;23.280;2023-12-04T14:20:07;21.55;;;10.70;;
76409;SDS011;65238;42.662;23.280;2023-12-04T14:22:43;25.08;;;11.05;;
76409;SDS011;65238;42.662;23.280;2023-12-04T14:25:11;22.95;;;10.73;;
76409;SDS011;65238;42.662;23.280;2023-12-04T14:27:37;28.98;;;11.32;;